createdAt,value
2022-09-12T00:00:51.248Z,7.18
2022-09-12T00:03:19.267Z,8.70
2022-09-12T00:05:48.650Z,9.30
2022-09-12T00:08:16.472Z,9.45
2022-09-12T00:10:45.647Z,7.93
2022-09-12T00:13:13.529Z,8.70
2022-09-12T00:15:42.942Z,7.85
2022-09-12T00:18:16.563Z,8.98
2022-09-12T00:20:45.066Z,8.55
2022-09-12T00:23:13.414Z,10.15
2022-09-12T00:25:44.643Z,9.98
2022-09-12T00:28:13.207Z,9.68
2022-09-12T00:30:42.930Z,8.48
2022-09-12T00:33:12.793Z,8.50
2022-09-12T00:35:45.090Z,7.78
2022-09-12T00:38:13.777Z,7.68
2022-09-12T00:40:42.525Z,8.43
2022-09-12T00:43:14.782Z,6.95
2022-09-12T00:45:43.111Z,6.43
2022-09-12T00:48:30.273Z,6.75
2022-09-12T00:50:58.114Z,6.70
2022-09-12T00:53:26.779Z,6.30
2022-09-12T00:55:55.628Z,6.50
2022-09-12T00:58:26.630Z,6.43
2022-09-12T01:00:54.599Z,7.03
2022-09-12T01:03:24.853Z,6.45
2022-09-12T01:06:02.256Z,5.82
2022-09-12T01:08:30.216Z,6.40
2022-09-12T01:10:58.599Z,6.20
2022-09-12T01:13:27.010Z,6.40
2022-09-12T01:15:55.834Z,6.30
2022-09-12T01:18:32.598Z,6.90
2022-09-12T01:21:15.798Z,6.20
2022-09-12T01:24:25.113Z,6.57
2022-09-12T01:27:16.921Z,7.38
2022-09-12T01:30:05.668Z,7.32
2022-09-12T01:32:48.105Z,7.90
2022-09-12T01:35:24.265Z,7.57
2022-09-12T01:37:59.837Z,7.40
2022-09-12T01:40:33.405Z,7.30
2022-09-12T01:43:10.311Z,7.15
2022-09-12T01:45:45.065Z,7.47
2022-09-12T01:48:20.502Z,7.97
2022-09-12T01:50:53.551Z,7.32
2022-09-12T01:53:25.388Z,7.30
2022-09-12T01:55:58.037Z,7.40
2022-09-12T01:58:30.407Z,7.93
2022-09-12T02:01:03.978Z,8.07
2022-09-12T02:03:41.006Z,7.05
2022-09-12T02:06:16.178Z,7.20
2022-09-12T02:08:48.598Z,8.25
2022-09-12T02:11:16.624Z,7.93
2022-09-12T02:13:49.255Z,8.18
2022-09-12T02:16:22.831Z,8.20
2022-09-12T02:18:55.006Z,8.82
2022-09-12T02:21:25.325Z,7.85
2022-09-12T02:23:58.007Z,8.30
2022-09-12T02:26:33.622Z,9.10
2022-09-12T02:29:01.643Z,8.85
2022-09-12T02:31:34.862Z,7.93
2022-09-12T02:34:13.541Z,8.00
2022-09-12T02:36:51.079Z,7.93
2022-09-12T02:39:20.896Z,8.80
2022-09-12T02:41:49.215Z,8.10
2022-09-12T02:44:17.038Z,8.55
2022-09-12T02:46:49.155Z,8.55
2022-09-12T02:49:19.176Z,8.20
2022-09-12T02:51:47.777Z,8.80
2022-09-12T02:54:17.966Z,8.27
2022-09-12T02:56:47.049Z,8.93
2022-09-12T02:59:19.718Z,8.65
2022-09-12T03:02:02.755Z,7.82
2022-09-12T03:04:48.191Z,7.60
2022-09-12T03:07:26.162Z,8.10
2022-09-12T03:10:03.842Z,9.48
2022-09-12T03:12:48.051Z,8.00
2022-09-12T03:15:28.575Z,8.50
2022-09-12T03:20:45.528Z,7.75
2022-09-12T03:23:25.591Z,8.20
2022-09-12T03:25:58.189Z,8.20
2022-09-12T03:28:26.114Z,7.57
2022-09-12T03:30:58.322Z,7.90
2022-09-12T03:33:27.087Z,8.40
2022-09-12T03:35:56.995Z,8.73
2022-09-12T03:38:24.982Z,8.98
2022-09-12T03:40:54.792Z,8.13
2022-09-12T03:43:22.822Z,7.90
2022-09-12T03:45:52.823Z,8.15
2022-09-12T03:48:20.728Z,8.68
2022-09-12T03:50:48.474Z,8.88
2022-09-12T03:53:17.685Z,8.98
2022-09-12T03:55:45.555Z,8.45
2022-09-12T03:58:13.385Z,8.43
2022-09-12T04:00:42.899Z,8.10
2022-09-12T04:03:11.009Z,8.25
2022-09-12T04:05:38.809Z,9.07
2022-09-12T04:08:06.601Z,8.68
2022-09-12T04:10:35.697Z,9.23
2022-09-12T04:13:03.597Z,9.35
2022-09-12T04:15:31.369Z,10.38
2022-09-12T04:18:03.660Z,9.13
2022-09-12T04:20:33.462Z,8.52
2022-09-12T04:23:01.281Z,9.57
2022-09-12T04:25:31.325Z,9.57
2022-09-12T04:28:00.528Z,9.30
2022-09-12T04:30:28.415Z,11.55
2022-09-12T04:32:56.174Z,9.95
2022-09-12T04:35:23.906Z,11.57
2022-09-12T04:37:51.723Z,10.48
2022-09-12T04:40:19.952Z,11.10
2022-09-12T04:42:47.783Z,12.30
2022-09-12T04:45:16.925Z,10.43
2022-09-12T04:47:46.458Z,10.18
2022-09-12T04:50:14.896Z,10.50
2022-09-12T04:52:42.910Z,9.35
2022-09-12T04:55:10.804Z,10.52
2022-09-12T04:57:38.571Z,10.25
2022-09-12T05:00:07.594Z,10.68
2022-09-12T05:02:36.706Z,11.18
2022-09-12T05:05:04.892Z,11.30
2022-09-12T05:07:33.078Z,9.30
2022-09-12T05:10:01.014Z,10.48
2022-09-12T05:12:28.983Z,9.15
2022-09-12T05:14:56.874Z,8.27
2022-09-12T05:17:24.791Z,8.80
2022-09-12T05:19:54.038Z,9.38
2022-09-12T05:22:22.849Z,8.23
2022-09-12T05:24:54.036Z,8.80
2022-09-12T05:27:21.847Z,8.88
2022-09-12T05:29:49.639Z,7.88
2022-09-12T05:32:17.409Z,8.48
2022-09-12T05:34:45.328Z,8.40
2022-09-12T05:37:14.505Z,8.05
2022-09-12T05:39:42.366Z,7.07
2022-09-12T05:42:10.506Z,7.60
2022-09-12T05:44:38.286Z,8.38
2022-09-12T05:47:06.423Z,7.45
2022-09-12T05:49:36.076Z,6.78
2022-09-12T05:52:04.266Z,7.20
2022-09-12T05:54:34.333Z,7.10
2022-09-12T05:57:02.126Z,6.85
2022-09-12T05:59:30.066Z,7.13
2022-09-12T06:01:57.865Z,6.50
2022-09-12T06:04:26.413Z,7.07
2022-09-12T06:06:54.332Z,8.55
2022-09-12T06:09:22.766Z,8.32
2022-09-12T06:11:51.998Z,7.47
2022-09-12T06:14:20.509Z,8.60
2022-09-12T06:16:49.891Z,7.78
2022-09-12T06:19:19.630Z,7.90
2022-09-12T06:21:48.321Z,7.47
2022-09-12T06:24:16.503Z,7.57
2022-09-12T06:26:44.488Z,6.95
2022-09-12T06:29:13.749Z,8.43
2022-09-12T06:31:44.008Z,7.05
2022-09-12T06:34:14.346Z,7.05
2022-09-12T06:36:44.445Z,6.88
2022-09-12T06:39:14.261Z,7.53
2022-09-12T06:41:44.182Z,7.63
2022-09-12T06:44:16.673Z,8.43
2022-09-12T06:46:45.353Z,8.00
2022-09-12T06:49:13.575Z,7.93
2022-09-12T06:51:43.152Z,7.75
2022-09-12T06:54:13.623Z,7.90
2022-09-12T06:56:41.488Z,8.57
2022-09-12T06:59:09.550Z,8.25
2022-09-12T07:01:40.068Z,9.35
2022-09-12T07:04:08.143Z,8.40
2022-09-12T07:06:38.661Z,8.43
2022-09-12T07:11:37.153Z,8.75
2022-09-12T07:14:07.159Z,8.32
2022-09-12T07:16:36.596Z,8.43
2022-09-12T07:19:07.543Z,8.40
2022-09-12T07:21:39.823Z,8.50
2022-09-12T07:24:09.837Z,9.77
2022-09-12T07:26:38.189Z,9.47
2022-09-12T07:29:32.721Z,9.27
2022-09-12T07:31:54.567Z,8.52
2022-09-12T07:34:23.747Z,8.93
2022-09-12T07:36:51.519Z,8.98
2022-09-12T07:39:20.033Z,9.48
2022-09-12T07:41:47.847Z,9.02
2022-09-12T07:44:15.617Z,9.13
2022-09-12T07:46:43.521Z,8.68
2022-09-12T07:49:13.561Z,8.98
2022-09-12T07:51:43.392Z,9.57
2022-09-12T07:54:11.536Z,9.57
2022-09-12T07:56:39.692Z,8.77
2022-09-12T07:59:07.868Z,9.80
2022-09-12T08:01:36.371Z,9.63
2022-09-12T08:04:05.226Z,8.68
2022-09-12T08:06:36.084Z,9.65
2022-09-12T08:09:07.806Z,9.43
2022-09-12T08:11:37.714Z,8.75
2022-09-12T08:14:06.008Z,9.68
2022-09-12T08:16:35.084Z,8.80
2022-09-12T08:19:04.284Z,9.80
2022-09-12T08:21:33.533Z,9.40
2022-09-12T08:24:03.613Z,10.02
2022-09-12T08:26:33.872Z,11.82
2022-09-12T08:29:01.955Z,11.27
2022-09-12T08:31:31.870Z,12.18
2022-09-12T08:34:00.790Z,11.30
2022-09-12T08:36:29.686Z,11.60
2022-09-12T08:39:00.151Z,10.90
2022-09-12T08:41:35.093Z,12.50
2022-09-12T08:44:27.273Z,10.88
2022-09-12T08:47:15.172Z,10.43
2022-09-12T08:49:58.037Z,12.70
2022-09-12T08:52:30.745Z,10.43
2022-09-12T08:54:58.691Z,10.82
2022-09-12T08:57:27.842Z,12.43
2022-09-12T08:59:56.829Z,11.38
2022-09-12T09:02:56.687Z,10.57
2022-09-12T09:05:38.495Z,10.30
2022-09-12T09:08:18.792Z,11.35
2022-09-12T09:10:51.955Z,10.98
2022-09-12T09:13:52.074Z,11.20
2022-09-12T09:16:25.432Z,10.05
2022-09-12T09:18:55.825Z,10.32
2022-09-12T09:21:30.181Z,10.00
2022-09-12T09:24:04.002Z,10.88
2022-09-12T09:26:41.623Z,10.88
2022-09-12T09:29:17.773Z,10.57
2022-09-12T09:31:49.027Z,9.70
2022-09-12T09:34:20.490Z,10.43
2022-09-12T09:36:53.077Z,10.52
2022-09-12T09:39:37.670Z,10.20
2022-09-12T09:42:19.550Z,9.80
2022-09-12T09:44:49.371Z,9.73
2022-09-12T09:47:19.289Z,9.90
2022-09-12T09:49:47.574Z,8.82
2022-09-12T09:52:18.497Z,10.45
2022-09-12T09:54:52.781Z,9.95
2022-09-12T09:57:41.483Z,9.93
2022-09-12T10:00:27.192Z,10.05
2022-09-12T10:03:30.820Z,10.15
2022-09-12T10:06:01.879Z,9.13
2022-09-12T10:08:32.167Z,9.77
2022-09-12T10:11:03.630Z,9.13
2022-09-12T10:13:41.740Z,8.98
2022-09-12T10:16:22.519Z,9.30
2022-09-12T10:18:52.405Z,9.88
2022-09-12T10:21:30.827Z,8.88
2022-09-12T10:24:21.832Z,9.13
2022-09-12T10:26:56.748Z,9.00
2022-09-12T10:29:28.600Z,9.85
2022-09-12T10:31:59.724Z,8.20
2022-09-12T10:34:32.454Z,8.50
2022-09-12T10:37:05.703Z,8.27
2022-09-12T10:39:36.040Z,7.80
2022-09-12T10:42:05.489Z,7.25
2022-09-12T10:44:35.447Z,8.20
2022-09-12T10:47:23.999Z,7.40
2022-09-12T10:49:51.844Z,8.75
2022-09-12T10:52:24.339Z,7.45
2022-09-12T10:54:52.453Z,6.35
2022-09-12T10:57:42.929Z,7.82
2022-09-12T11:02:58.507Z,7.32
2022-09-12T11:05:40.157Z,7.28
2022-09-12T11:08:19.870Z,7.15
2022-09-12T11:10:57.070Z,6.50
2022-09-12T11:13:40.667Z,6.15
2022-09-12T11:16:19.971Z,5.93
2022-09-12T11:19:09.136Z,6.72
2022-09-12T11:21:58.462Z,5.72
2022-09-12T11:24:54.093Z,5.15
2022-09-12T11:27:39.666Z,4.22
2022-09-12T11:30:12.042Z,5.15
2022-09-12T11:32:56.986Z,5.25
2022-09-12T11:35:29.597Z,5.05
2022-09-12T11:38:15.963Z,5.13
2022-09-12T11:40:48.631Z,4.60
2022-09-12T11:43:26.896Z,4.25
2022-09-12T11:45:55.521Z,4.32
2022-09-12T11:48:36.543Z,6.18
2022-09-12T11:51:16.969Z,5.25
2022-09-12T11:56:18.449Z,4.70
2022-09-12T11:58:52.787Z,3.85
2022-09-12T12:01:26.074Z,4.18
2022-09-12T12:03:55.469Z,3.78
2022-09-12T12:06:31.238Z,3.90
2022-09-12T12:08:59.654Z,3.55
2022-09-12T12:11:31.880Z,3.92
2022-09-12T12:14:03.939Z,3.55
2022-09-12T12:16:34.624Z,4.55
2022-09-12T12:19:10.006Z,4.60
2022-09-12T12:21:44.534Z,3.80
2022-09-12T12:24:18.824Z,3.65
2022-09-12T12:26:59.436Z,3.85
2022-09-12T12:29:48.154Z,4.18
2022-09-12T12:32:26.632Z,4.38
2022-09-12T12:35:38.998Z,5.43
2022-09-12T12:38:28.258Z,3.50
2022-09-12T12:41:34.881Z,3.70
2022-09-12T12:44:37.624Z,4.03
2022-09-12T12:47:20.686Z,3.72
2022-09-12T12:49:54.328Z,3.85
2022-09-12T12:52:22.608Z,4.15
2022-09-12T12:54:57.364Z,3.85
2022-09-12T12:57:50.347Z,3.80
2022-09-12T13:00:32.116Z,3.88
2022-09-12T13:03:08.543Z,3.53
2022-09-12T13:05:43.028Z,3.58
2022-09-12T13:08:28.791Z,4.25
2022-09-12T13:11:01.000Z,3.90
2022-09-12T13:13:35.606Z,4.03
2022-09-12T13:16:04.024Z,3.95
2022-09-12T13:18:44.528Z,4.10
2022-09-12T13:21:15.499Z,3.92
2022-09-12T13:23:44.303Z,3.70
2022-09-12T13:26:14.030Z,3.97
2022-09-12T13:28:41.936Z,3.80
2022-09-12T13:31:17.863Z,3.50
2022-09-12T13:33:51.323Z,3.95
2022-09-12T13:37:16.156Z,4.00
2022-09-12T13:39:49.678Z,3.83
2022-09-12T13:42:39.770Z,3.58
2022-09-12T13:45:14.245Z,3.65
2022-09-12T13:47:44.350Z,3.30
2022-09-12T13:50:20.414Z,4.20
2022-09-12T13:52:54.119Z,3.83
2022-09-12T13:55:31.423Z,4.90
2022-09-12T13:58:01.860Z,4.38
2022-09-12T14:00:32.162Z,4.07
2022-09-12T14:05:57.411Z,4.10
2022-09-12T14:08:26.010Z,3.47
2022-09-12T14:10:54.547Z,3.78
2022-09-12T14:13:24.802Z,3.80
2022-09-12T14:18:25.143Z,3.80
2022-09-12T14:20:57.228Z,3.25
2022-09-12T14:23:31.042Z,3.88
2022-09-12T14:26:01.399Z,4.65
2022-09-12T14:28:30.187Z,3.83
2022-09-12T14:31:05.167Z,4.00
2022-09-12T14:33:35.322Z,3.35
2022-09-12T14:36:13.218Z,3.75
2022-09-12T14:38:43.828Z,4.20
2022-09-12T14:41:14.672Z,4.20
2022-09-12T14:43:47.098Z,3.78
2022-09-12T14:46:21.416Z,4.07
2022-09-12T14:48:53.016Z,4.32
2022-09-12T14:51:26.900Z,3.80
2022-09-12T14:53:55.200Z,3.88
2022-09-12T14:56:37.890Z,4.30
2022-09-12T14:59:28.669Z,4.30
2022-09-12T15:02:29.065Z,3.70
2022-09-12T15:07:53.714Z,3.40
2022-09-12T15:10:25.401Z,4.35
2022-09-12T15:13:14.062Z,3.42
2022-09-12T15:15:43.715Z,3.50
2022-09-12T15:18:12.081Z,3.70
2022-09-12T15:20:41.783Z,3.65
2022-09-12T15:23:18.308Z,3.60
2022-09-12T15:25:46.368Z,3.30
2022-09-12T15:28:18.884Z,3.83
2022-09-12T15:30:49.545Z,3.30
2022-09-12T15:33:17.670Z,3.53
2022-09-12T15:35:45.577Z,3.35
2022-09-12T15:38:14.713Z,3.80
2022-09-12T15:40:43.021Z,3.60
2022-09-12T15:43:13.478Z,3.08
2022-09-12T15:45:43.460Z,3.35
2022-09-12T15:48:11.512Z,3.60
2022-09-12T15:50:39.295Z,3.75
2022-09-12T15:53:07.103Z,3.08
2022-09-12T15:55:37.363Z,3.67
2022-09-12T16:00:35.651Z,3.88
2022-09-12T16:03:04.089Z,4.00
2022-09-12T16:05:32.355Z,3.50
2022-09-12T16:08:00.187Z,3.45
2022-09-12T16:10:30.199Z,3.45
2022-09-12T16:13:00.439Z,3.72
2022-09-12T16:15:28.336Z,3.90
2022-09-12T16:17:56.221Z,3.72
2022-09-12T16:20:24.386Z,3.72
2022-09-12T16:22:53.251Z,3.95
2022-09-12T16:25:21.200Z,3.60
2022-09-12T16:27:51.480Z,3.53
2022-09-12T16:31:09.000Z,3.63
2022-09-12T16:33:39.870Z,3.47
2022-09-12T16:36:09.985Z,3.65
2022-09-12T16:38:42.240Z,4.30
2022-09-12T16:41:10.442Z,4.03
2022-09-12T16:43:38.993Z,3.90
2022-09-12T16:46:08.499Z,4.70
2022-09-12T16:48:38.921Z,4.35
2022-09-12T16:51:07.739Z,4.40
2022-09-12T16:53:37.098Z,3.92
2022-09-12T16:56:05.226Z,4.47
2022-09-12T16:58:35.631Z,4.85
2022-09-12T17:01:08.293Z,4.63
2022-09-12T17:03:37.880Z,4.00
2022-09-12T17:06:07.762Z,4.00
2022-09-12T17:08:37.178Z,4.25
2022-09-12T17:11:12.425Z,4.50
2022-09-12T17:14:10.514Z,4.15
2022-09-12T17:16:50.774Z,4.45
2022-09-12T17:21:50.237Z,4.60
2022-09-12T17:24:18.653Z,4.78
2022-09-12T17:26:46.554Z,5.03
2022-09-12T17:29:15.139Z,5.30
2022-09-12T17:31:45.245Z,5.47
2022-09-12T17:34:14.539Z,5.75
2022-09-12T17:36:45.139Z,6.85
2022-09-12T17:41:42.870Z,4.90
2022-09-12T17:44:12.460Z,5.20
2022-09-12T17:46:40.783Z,5.78
2022-09-12T17:49:11.715Z,5.53
2022-09-12T17:51:40.930Z,4.40
2022-09-12T17:54:12.870Z,4.63
2022-09-12T17:56:41.085Z,5.07
2022-09-12T17:59:11.307Z,4.63
2022-09-12T18:01:56.962Z,4.97
2022-09-12T18:04:24.859Z,5.00
2022-09-12T18:06:53.164Z,5.47
2022-09-12T18:09:25.061Z,5.15
2022-09-12T18:11:53.746Z,5.88
2022-09-12T18:14:22.023Z,5.75
2022-09-12T18:16:50.422Z,5.47
2022-09-12T18:19:18.604Z,5.63
2022-09-12T18:21:46.765Z,5.90
2022-09-12T18:24:14.568Z,6.07
2022-09-12T18:26:44.389Z,5.90
2022-09-12T18:29:13.461Z,6.88
2022-09-12T18:31:41.341Z,5.38
2022-09-12T18:34:12.721Z,5.53
2022-09-12T18:36:41.333Z,5.80
2022-09-12T18:39:09.560Z,5.32
2022-09-12T18:41:37.765Z,5.72
2022-09-12T18:44:07.893Z,6.22
2022-09-12T18:46:36.687Z,5.97
2022-09-12T18:49:05.549Z,5.93
2022-09-12T18:51:36.008Z,5.93
2022-09-12T18:56:37.612Z,5.78
2022-09-12T18:59:08.214Z,6.63
2022-09-12T19:01:37.846Z,6.28
2022-09-12T19:04:06.197Z,6.23
2022-09-12T19:06:35.665Z,6.43
2022-09-12T19:09:07.514Z,5.55
2022-09-12T19:11:37.825Z,5.72
2022-09-12T19:14:08.354Z,5.38
2022-09-12T19:19:06.308Z,6.07
2022-09-12T19:21:35.309Z,5.97
2022-09-12T19:24:05.533Z,6.55
2022-09-12T19:26:33.901Z,6.43
2022-09-12T19:29:02.971Z,5.97
2022-09-12T19:31:33.152Z,6.40
2022-09-12T19:34:02.052Z,6.75
2022-09-12T19:36:47.314Z,5.93
2022-09-12T19:39:16.514Z,8.15
2022-09-12T19:41:44.598Z,7.05
2022-09-12T19:44:12.733Z,5.97
2022-09-12T19:46:42.149Z,7.03
2022-09-12T19:49:12.212Z,6.25
2022-09-12T19:51:40.203Z,7.50
2022-09-12T19:54:08.277Z,7.38
2022-09-12T19:56:36.314Z,7.32
2022-09-12T19:59:04.265Z,6.93
2022-09-12T20:01:32.539Z,7.28
2022-09-12T20:04:02.147Z,7.32
2022-09-12T20:06:30.172Z,6.80
2022-09-12T20:08:58.845Z,7.40
2022-09-12T20:11:26.766Z,7.00
2022-09-12T20:13:55.150Z,6.65
2022-09-12T20:16:25.417Z,6.93
2022-09-12T20:21:31.011Z,7.82
2022-09-12T20:24:02.284Z,7.03
2022-09-12T20:26:31.104Z,6.50
2022-09-12T20:28:58.905Z,7.18
2022-09-12T20:31:27.003Z,7.68
2022-09-12T20:33:55.968Z,7.45
2022-09-12T20:36:25.326Z,7.72
2022-09-12T20:38:56.587Z,8.68
2022-09-12T20:41:26.057Z,7.45
2022-09-12T20:43:55.484Z,7.68
2022-09-12T20:46:24.435Z,7.68
2022-09-12T20:48:52.727Z,7.78
2022-09-12T20:51:21.182Z,8.65
2022-09-12T20:53:54.547Z,7.95
2022-09-12T20:56:23.178Z,6.72
2022-09-12T20:58:51.785Z,6.80
2022-09-12T21:01:19.819Z,7.80
2022-09-12T21:03:47.791Z,6.93
2022-09-12T21:06:17.371Z,7.28
2022-09-12T21:08:45.994Z,7.50
2022-09-12T21:11:15.667Z,7.43
2022-09-12T21:13:43.701Z,8.87
2022-09-12T21:16:13.336Z,7.15
2022-09-12T21:18:41.839Z,7.13
2022-09-12T21:21:11.468Z,7.53
2022-09-12T21:23:39.985Z,7.10
2022-09-12T21:26:08.622Z,7.22
2022-09-12T21:28:38.060Z,7.65
2022-09-12T21:31:06.236Z,6.88
2022-09-12T21:33:34.131Z,7.70
2022-09-12T21:36:03.445Z,7.15
2022-09-12T21:38:31.573Z,6.82
2022-09-12T21:41:07.681Z,7.07
2022-09-12T21:43:37.053Z,7.30
2022-09-12T21:46:05.974Z,7.63
2022-09-12T21:48:34.634Z,7.95
2022-09-12T21:51:02.665Z,7.82
2022-09-12T21:53:30.999Z,7.20
2022-09-12T21:56:02.361Z,7.10
2022-09-12T21:58:30.301Z,7.18
2022-09-12T22:00:59.731Z,8.35
2022-09-12T22:03:27.629Z,8.05
2022-09-12T22:05:59.509Z,7.45
2022-09-12T22:08:27.872Z,7.72
2022-09-12T22:10:59.476Z,7.45
2022-09-12T22:13:27.917Z,7.65
2022-09-12T22:15:56.089Z,7.63
2022-09-12T22:18:25.371Z,7.85
2022-09-12T22:21:00.443Z,7.82
2022-09-12T22:23:45.881Z,7.90
2022-09-12T22:26:14.286Z,7.30
2022-09-12T22:28:42.953Z,8.02
2022-09-12T22:31:12.124Z,7.20
2022-09-12T22:33:41.536Z,7.68
2022-09-12T22:36:09.931Z,7.30
2022-09-12T22:38:38.097Z,8.18
2022-09-12T22:41:06.748Z,7.88
2022-09-12T22:43:35.741Z,8.30
2022-09-12T22:46:08.100Z,7.57
2022-09-12T22:48:36.450Z,7.68
2022-09-12T22:51:06.387Z,7.00
2022-09-12T22:53:34.499Z,8.00
2022-09-12T22:56:02.767Z,7.82
2022-09-12T22:58:30.618Z,7.40
2022-09-12T23:00:58.504Z,8.13
2022-09-12T23:03:26.368Z,8.07
2022-09-12T23:05:54.242Z,7.75
2022-09-12T23:08:23.519Z,7.30
2022-09-12T23:10:51.265Z,7.43
2022-09-12T23:13:19.125Z,7.68
2022-09-12T23:15:46.966Z,7.95
2022-09-12T23:18:14.801Z,7.97
2022-09-12T23:20:42.578Z,7.60
2022-09-12T23:23:10.828Z,6.70
2022-09-12T23:25:40.001Z,6.97
2022-09-12T23:28:07.826Z,7.72
2022-09-12T23:30:37.956Z,7.03
2022-09-12T23:33:05.811Z,6.63
2022-09-12T23:35:33.618Z,7.50
2022-09-12T23:38:01.380Z,7.88
2022-09-12T23:40:29.219Z,7.82
2022-09-12T23:42:58.421Z,6.55
2022-09-12T23:45:26.259Z,7.80
2022-09-12T23:47:54.149Z,7.00
2022-09-12T23:50:22.007Z,6.68
2022-09-12T23:52:49.844Z,7.82
2022-09-12T23:55:17.745Z,7.10
2022-09-12T23:57:45.558Z,6.53
